sensor_id;sensor_type;location;lat;lon;timestamp;pressure;altitude;pressure_sealevel;temperature;humidity
3917;BME280;1973;50.518;7.318;2022-07-22T00:00:33;101403.50;;;19.82;100.00
3917;BME280;1973;50.518;7.318;2022-07-22T00:03:00;101403.50;;;19.82;100.00
3917;BME280;1973;50.518;7.318;2022-07-22T00:05:26;101407.63;;;19.74;100.00
3917;BME280;1973;50.518;7.318;2022-07-22T00:07:53;101403.41;;;19.72;100.00
3917;BME280;1973;50.518;7.318;2022-07-22T00:10:20;101403.97;;;19.74;100.00
3917;BME280;1973;50.518;7.318;2022-07-22T00:12:46;101407.03;;;19.72;100.00
3917;BME280;1973;50.518;7.318;2022-07-22T00:15:12;101395.25;;;19.70;100.00
3917;BME280;1973;50.518;7.318;2022-07-22T00:17:40;101404.78;;;19.69;100.00
3917;BME280;1973;50.518;7.318;2022-07-22T00:20:07;101391.06;;;19.68;100.00
3917;BME280;1973;50.518;7.318;2022-07-22T00:22:34;101390.22;;;19.67;100.00
3917;BME280;1973;50.518;7.318;2022-07-22T00:25:01;101387.94;;;19.64;100.00
3917;BME280;1973;50.518;7.318;2022-07-22T00:27:27;101386.25;;;19.63;100.00
3917;BME280;1973;50.518;7.318;2022-07-22T00:29:54;101387.69;;;19.66;100.00
3917;BME280;1973;50.518;7.318;2022-07-22T00:32:20;101398.03;;;19.65;100.00
3917;BME280;1973;50.518;7.318;2022-07-22T00:34:47;101402.47;;;19.66;100.00
3917;BME280;1973;50.518;7.318;2022-07-22T00:37:14;101388.78;;;19.65;100.00
3917;BME280;1973;50.518;7.318;2022-07-22T00:39:40;101381.25;;;19.65;100.00
3917;BME280;1973;50.518;7.318;2022-07-22T00:42:07;101380.72;;;19.68;100.00
3917;BME280;1973;50.518;7.318;2022-07-22T00:44:34;101381.56;;;19.69;100.00
3917;BME280;1973;50.518;7.318;2022-07-22T00:47:05;101379.03;;;19.67;100.00
3917;BME280;1973;50.518;7.318;2022-07-22T00:49:32;101386.56;;;19.67;100.00
3917;BME280;1973;50.518;7.318;2022-07-22T00:51:58;101385.72;;;19.66;100.00
3917;BME280;1973;50.518;7.318;2022-07-22T00:54:25;101381.56;;;19.69;100.00
3917;BME280;1973;50.518;7.318;2022-07-22T00:56:51;101376.50;;;19.66;100.00
3917;BME280;1973;50.518;7.318;2022-07-22T00:59:19;101370.09;;;19.65;100.00
3917;BME280;1973;50.518;7.318;2022-07-22T01:01:45;101381.75;;;19.62;100.00
3917;BME280;1973;50.518;7.318;2022-07-22T01:04:13;101376.16;;;19.62;100.00
3917;BME280;1973;50.518;7.318;2022-07-22T01:06:40;101378.38;;;19.60;100.00
3917;BME280;1973;50.518;7.318;2022-07-22T01:09:11;101372.81;;;19.60;100.00
3917;BME280;1973;50.518;7.318;2022-07-22T01:11:40;101379.25;;;19.61;100.00
3917;BME280;1973;50.518;7.318;2022-07-22T01:14:06;101373.34;;;19.57;100.00
3917;BME280;1973;50.518;7.318;2022-07-22T01:16:33;101376.38;;;19.56;100.00
3917;BME280;1973;50.518;7.318;2022-07-22T01:18:59;101372.16;;;19.53;100.00
3917;BME280;1973;50.518;7.318;2022-07-22T01:21:26;101369.63;;;19.52;100.00
3917;BME280;1973;50.518;7.318;2022-07-22T01:23:53;101365.97;;;19.51;100.00
3917;BME280;1973;50.518;7.318;2022-07-22T01:26:20;101367.63;;;19.47;100.00
3917;BME280;1973;50.518;7.318;2022-07-22T01:28:46;101366.50;;;19.48;100.00
3917;BME280;1973;50.518;7.318;2022-07-22T01:31:13;101369.28;;;19.48;100.00
3917;BME280;1973;50.518;7.318;2022-07-22T01:33:39;101362.03;;;19.47;100.00
3917;BME280;1973;50.518;7.318;2022-07-22T01:36:06;101365.09;;;19.46;100.00
3917;BME280;1973;50.518;7.318;2022-07-22T01:38:33;101372.63;;;19.45;100.00
3917;BME280;1973;50.518;7.318;2022-07-22T01:41:00;101373.13;;;19.42;100.00
3917;BME280;1973;50.518;7.318;2022-07-22T01:43:27;101377.63;;;19.43;100.00
3917;BME280;1973;50.518;7.318;2022-07-22T01:45:54;101363.38;;;19.44;100.00
3917;BME280;1973;50.518;7.318;2022-07-22T01:48:21;101362.53;;;19.44;100.00
3917;BME280;1973;50.518;7.318;2022-07-22T01:50:48;101367.31;;;19.43;100.00
3917;BME280;1973;50.518;7.318;2022-07-22T01:53:15;101372.53;;;19.40;100.00
3917;BME280;1973;50.518;7.318;2022-07-22T01:55:42;101367.97;;;19.34;100.00
3917;BME280;1973;50.518;7.318;2022-07-22T01:58:08;101363.44;;;19.28;100.00
3917;BME280;1973;50.518;7.318;2022-07-22T02:00:36;101370.34;;;19.25;100.00
3917;BME280;1973;50.518;7.318;2022-07-22T02:03:03;101361.66;;;19.22;100.00
3917;BME280;1973;50.518;7.318;2022-07-22T02:05:30;101376.47;;;19.22;100.00
3917;BME280;1973;50.518;7.318;2022-07-22T02:08:01;101364.72;;;19.20;100.00
3917;BME280;1973;50.518;7.318;2022-07-22T02:10:27;101368.91;;;19.18;100.00
3917;BME280;1973;50.518;7.318;2022-07-22T02:12:55;101366.09;;;19.18;100.00
3917;BME280;1973;50.518;7.318;2022-07-22T02:15:21;101364.13;;;19.18;100.00
3917;BME280;1973;50.518;7.318;2022-07-22T02:17:48;101371.09;;;19.16;100.00
3917;BME280;1973;50.518;7.318;2022-07-22T02:20:15;101359.06;;;19.15;100.00
3917;BME280;1973;50.518;7.318;2022-07-22T02:22:41;101368.53;;;19.14;100.00
3917;BME280;1973;50.518;7.318;2022-07-22T02:25:08;101356.56;;;19.14;100.00
3917;BME280;1973;50.518;7.318;2022-07-22T02:27:35;101363.81;;;19.15;100.00
3917;BME280;1973;50.518;7.318;2022-07-22T02:30:02;101361.63;;;19.17;100.00
3917;BME280;1973;50.518;7.318;2022-07-22T02:32:29;101364.31;;;19.12;100.00
3917;BME280;1973;50.518;7.318;2022-07-22T02:34:56;101359.25;;;19.09;100.00
3917;BME280;1973;50.518;7.318;2022-07-22T02:37:24;101363.41;;;19.06;100.00
3917;BME280;1973;50.518;7.318;2022-07-22T02:39:50;101365.88;;;19.03;100.00
3917;BME280;1973;50.518;7.318;2022-07-22T02:42:17;101356.38;;;19.04;100.00
3917;BME280;1973;50.518;7.318;2022-07-22T02:44:43;101365.28;;;19.01;100.00
3917;BME280;1973;50.518;7.318;2022-07-22T02:47:10;101365.56;;;18.99;100.00
3917;BME280;1973;50.518;7.318;2022-07-22T02:49:36;101364.94;;;18.97;100.00
3917;BME280;1973;50.518;7.318;2022-07-22T02:52:03;101365.22;;;18.95;100.00
3917;BME280;1973;50.518;7.318;2022-07-22T02:54:29;101359.03;;;18.93;100.00
3917;BME280;1973;50.518;7.318;2022-07-22T02:56:56;101365.47;;;18.94;100.00
3917;BME280;1973;50.518;7.318;2022-07-22T02:59:22;101355.41;;;18.93;100.00
3917;BME280;1973;50.518;7.318;2022-07-22T03:01:49;101363.53;;;18.94;100.00
3917;BME280;1973;50.518;7.318;2022-07-22T03:04:15;101362.50;;;19.01;100.00
3917;BME280;1973;50.518;7.318;2022-07-22T03:06:42;101363.59;;;19.00;100.00
3917;BME280;1973;50.518;7.318;2022-07-22T03:09:08;101368.69;;;19.03;100.00
3917;BME280;1973;50.518;7.318;2022-07-22T03:11:35;101369.25;;;19.05;100.00
3917;BME280;1973;50.518;7.318;2022-07-22T03:14:01;101367.31;;;19.05;100.00
3917;BME280;1973;50.518;7.318;2022-07-22T03:16:28;101373.13;;;19.04;100.00
3917;BME280;1973;50.518;7.318;2022-07-22T03:18:54;101373.13;;;19.04;100.00
3917;BME280;1973;50.518;7.318;2022-07-22T03:21:21;101374.84;;;19.05;100.00
3917;BME280;1973;50.518;7.318;2022-07-22T03:23:48;101374.84;;;19.05;100.00
3917;BME280;1973;50.518;7.318;2022-07-22T03:26:20;101370.88;;;19.01;100.00
3917;BME280;1973;50.518;7.318;2022-07-22T03:28:47;101375.34;;;19.02;100.00
3917;BME280;1973;50.518;7.318;2022-07-22T03:31:14;101380.94;;;19.02;100.00
3917;BME280;1973;50.518;7.318;2022-07-22T03:33:41;101371.47;;;19.03;100.00
3917;BME280;1973;50.518;7.318;2022-07-22T03:36:08;101366.69;;;19.03;100.00
3917;BME280;1973;50.518;7.318;2022-07-22T03:38:35;101367.22;;;19.00;100.00
3917;BME280;1973;50.518;7.318;2022-07-22T03:41:02;101364.19;;;19.02;100.00
3917;BME280;1973;50.518;7.318;2022-07-22T03:43:29;101360.53;;;19.01;100.00
3917;BME280;1973;50.518;7.318;2022-07-22T03:45:55;101363.91;;;19.03;100.00
3917;BME280;1973;50.518;7.318;2022-07-22T03:48:22;101369.50;;;19.03;100.00
3917;BME280;1973;50.518;7.318;2022-07-22T03:50:48;101363.09;;;19.03;100.00
3917;BME280;1973;50.518;7.318;2022-07-22T03:53:16;101358.53;;;18.96;100.00
3917;BME280;1973;50.518;7.318;2022-07-22T03:55:42;101362.69;;;18.94;100.00
3917;BME280;1973;50.518;7.318;2022-07-22T03:58:09;101370.81;;;18.95;100.00
3917;BME280;1973;50.518;7.318;2022-07-22T04:00:35;101366.91;;;18.96;100.00
3917;BME280;1973;50.518;7.318;2022-07-22T04:03:02;101370.81;;;18.95;100.00
3917;BME280;1973;50.518;7.318;2022-07-22T04:05:29;101374.19;;;18.98;100.00
3917;BME280;1973;50.518;7.318;2022-07-22T04:07:55;101373.09;;;18.99;100.00
3917;BME280;1973;50.518;7.318;2022-07-22T04:10:22;101371.97;;;19.00;100.00
3917;BME280;1973;50.518;7.318;2022-07-22T04:12:48;101369.78;;;19.02;100.00
3917;BME280;1973;50.518;7.318;2022-07-22T04:15:15;101371.19;;;19.04;100.00
3917;BME280;1973;50.518;7.318;2022-07-22T04:17:41;101379.31;;;19.06;100.00
3917;BME280;1973;50.518;7.318;2022-07-22T04:20:08;101368.22;;;19.11;100.00
3917;BME280;1973;50.518;7.318;2022-07-22T04:22:35;101364.06;;;19.13;100.00
3917;BME280;1973;50.518;7.318;2022-07-22T04:25:01;101371.09;;;19.16;100.00
3917;BME280;1973;50.518;7.318;2022-07-22T04:27:28;101366.66;;;19.20;100.00
3917;BME280;1973;50.518;7.318;2022-07-22T04:29:54;101376.22;;;19.24;100.00
3917;BME280;1973;50.518;7.318;2022-07-22T04:32:21;101371.81;;;19.28;100.00
3917;BME280;1973;50.518;7.318;2022-07-22T04:34:47;101366.78;;;19.30;100.00
3917;BME280;1973;50.518;7.318;2022-07-22T04:37:14;101359.03;;;19.32;100.00
3917;BME280;1973;50.518;7.318;2022-07-22T04:39:40;101376.34;;;19.34;100.00
3917;BME280;1973;50.518;7.318;2022-07-22T04:42:07;101367.72;;;19.35;100.00
3917;BME280;1973;50.518;7.318;2022-07-22T04:44:33;101374.16;;;19.36;100.00
3917;BME280;1973;50.518;7.318;2022-07-22T04:47:00;101382.53;;;19.36;100.00
3917;BME280;1973;50.518;7.318;2022-07-22T04:49:33;101375.25;;;19.35;100.00
3917;BME280;1973;50.518;7.318;2022-07-22T04:52:01;101386.16;;;19.36;100.00
3917;BME280;1973;50.518;7.318;2022-07-22T04:54:27;101377.75;;;19.36;100.00
3917;BME280;1973;50.518;7.318;2022-07-22T04:56:54;101374.16;;;19.36;100.00
3917;BME280;1973;50.518;7.318;2022-07-22T04:59:21;101373.31;;;19.35;100.00
3917;BME280;1973;50.518;7.318;2022-07-22T05:01:49;101369.06;;;19.33;100.00
3917;BME280;1973;50.518;7.318;2022-07-22T05:04:16;101375.78;;;19.32;100.00
3917;BME280;1973;50.518;7.318;2022-07-22T05:06:43;101362.91;;;19.31;100.00
3917;BME280;1973;50.518;7.318;2022-07-22T05:09:09;101374.00;;;19.26;100.00
3917;BME280;1973;50.518;7.318;2022-07-22T05:11:35;101377.91;;;19.25;100.00
3917;BME280;1973;50.518;7.318;2022-07-22T05:14:02;101375.94;;;19.25;100.00
3917;BME280;1973;50.518;7.318;2022-07-22T05:16:28;101386.53;;;19.23;100.00
3917;BME280;1973;50.518;7.318;2022-07-22T05:18:55;101374.81;;;19.21;100.00
3917;BME280;1973;50.518;7.318;2022-07-22T05:21:22;101381.72;;;19.19;100.00
3917;BME280;1973;50.518;7.318;2022-07-22T05:23:48;101380.88;;;19.18;100.00
3917;BME280;1973;50.518;7.318;2022-07-22T05:26:15;101380.06;;;19.18;100.00
3917;BME280;1973;50.518;7.318;2022-07-22T05:28:42;101368.38;;;19.21;100.00
3917;BME280;1973;50.518;7.318;2022-07-22T05:31:08;101370.88;;;19.22;100.00
3917;BME280;1973;50.518;7.318;2022-07-22T05:33:35;101366.75;;;19.25;100.00
3917;BME280;1973;50.518;7.318;2022-07-22T05:36:01;101372.97;;;19.32;100.00
3917;BME280;1973;50.518;7.318;2022-07-22T05:38:28;101373.56;;;19.34;100.00
3917;BME280;1973;50.518;7.318;2022-07-22T05:40:57;101368.56;;;19.36;100.00
3917;BME280;1973;50.518;7.318;2022-07-22T05:43:24;101364.16;;;19.40;100.00
3917;BME280;1973;50.518;7.318;2022-07-22T05:45:50;101360.25;;;19.41;100.00
3917;BME280;1973;50.518;7.318;2022-07-22T05:48:17;101360.25;;;19.41;100.00
3917;BME280;1973;50.518;7.318;2022-07-22T05:50:43;101358.31;;;19.41;100.00
3917;BME280;1973;50.518;7.318;2022-07-22T05:53:10;101354.75;;;19.46;100.00
3917;BME280;1973;50.518;7.318;2022-07-22T05:55:36;101358.13;;;19.48;100.00
3917;BME280;1973;50.518;7.318;2022-07-22T05:58:03;101354.81;;;19.51;100.00
3917;BME280;1973;50.518;7.318;2022-07-22T06:00:29;101349.81;;;19.53;100.00
3917;BME280;1973;50.518;7.318;2022-07-22T06:02:56;101342.00;;;19.55;100.00
3917;BME280;1973;50.518;7.318;2022-07-22T06:05:22;101341.19;;;19.55;100.00
3917;BME280;1973;50.518;7.318;2022-07-22T06:08:02;101340.34;;;19.54;100.00
3917;BME280;1973;50.518;7.318;2022-07-22T06:10:29;101342.00;;;19.55;100.00
3917;BME280;1973;50.518;7.318;2022-07-22T06:12:56;101333.31;;;19.52;100.00
3917;BME280;1973;50.518;7.318;2022-07-22T06:15:22;101335.84;;;19.53;100.00
3917;BME280;1973;50.518;7.318;2022-07-22T06:17:52;101334.75;;;19.54;100.00
3917;BME280;1973;50.518;7.318;2022-07-22T06:20:19;101334.75;;;19.54;100.00
3917;BME280;1973;50.518;7.318;2022-07-22T06:22:45;101344.22;;;19.53;100.00
3917;BME280;1973;50.518;7.318;2022-07-22T06:25:12;101350.97;;;19.57;100.00
3917;BME280;1973;50.518;7.318;2022-07-22T06:27:58;101357.75;;;19.61;100.00
3917;BME280;1973;50.518;7.318;2022-07-22T06:30:25;101353.81;;;19.62;100.00
3917;BME280;1973;50.518;7.318;2022-07-22T06:32:53;101358.38;;;19.68;100.00
3917;BME280;1973;50.518;7.318;2022-07-22T06:35:22;101355.63;;;19.73;100.00
3917;BME280;1973;50.518;7.318;2022-07-22T06:37:51;101356.28;;;19.80;100.00
3917;BME280;1973;50.518;7.318;2022-07-22T06:40:34;101351.31;;;19.87;100.00
3917;BME280;1973;50.518;7.318;2022-07-22T06:43:02;101354.16;;;19.92;100.00
3917;BME280;1973;50.518;7.318;2022-07-22T06:45:29;101346.41;;;20.00;100.00
3917;BME280;1973;50.518;7.318;2022-07-22T06:47:56;101348.16;;;20.06;100.00
3917;BME280;1973;50.518;7.318;2022-07-22T06:50:24;101344.88;;;20.14;100.00
3917;BME280;1973;50.518;7.318;2022-07-22T06:52:52;101339.59;;;20.17;100.00
3917;BME280;1973;50.518;7.318;2022-07-22T06:55:19;101343.81;;;20.20;100.00
3917;BME280;1973;50.518;7.318;2022-07-22T06:57:45;101339.38;;;20.24;100.00
3917;BME280;1973;50.518;7.318;2022-07-22T07:00:12;101344.19;;;20.28;100.00
3917;BME280;1973;50.518;7.318;2022-07-22T07:02:38;101342.28;;;20.34;100.00
3917;BME280;1973;50.518;7.318;2022-07-22T07:05:05;101332.53;;;20.42;100.00
3917;BME280;1973;50.518;7.318;2022-07-22T07:07:32;101337.34;;;20.46;100.00
3917;BME280;1973;50.518;7.318;2022-07-22T07:10:02;101338.22;;;20.52;100.00
3917;BME280;1973;50.518;7.318;2022-07-22T07:12:34;101332.34;;;20.53;100.00
3917;BME280;1973;50.518;7.318;2022-07-22T07:15:04;101331.25;;;20.54;100.00
3917;BME280;1973;50.518;7.318;2022-07-22T07:17:50;101346.41;;;20.58;100.00
3917;BME280;1973;50.518;7.318;2022-07-22T07:20:17;101337.19;;;20.63;100.00
3917;BME280;1973;50.518;7.318;2022-07-22T07:22:43;101333.28;;;20.64;100.00
3917;BME280;1973;50.518;7.318;2022-07-22T07:25:10;101329.13;;;20.71;100.00
3917;BME280;1973;50.518;7.318;2022-07-22T07:27:48;101331.97;;;20.81;100.00
3917;BME280;1973;50.518;7.318;2022-07-22T07:30:16;101333.72;;;20.87;100.00
3917;BME280;1973;50.518;7.318;2022-07-22T07:32:42;101328.72;;;20.95;100.00
3917;BME280;1973;50.518;7.318;2022-07-22T07:35:09;101329.31;;;21.02;100.00
3917;BME280;1973;50.518;7.318;2022-07-22T07:37:35;101320.91;;;21.07;100.00
3917;BME280;1973;50.518;7.318;2022-07-22T07:40:03;101318.19;;;21.12;100.00
3917;BME280;1973;50.518;7.318;2022-07-22T07:42:30;101311.47;;;21.18;100.00
3917;BME280;1973;50.518;7.318;2022-07-22T07:44:57;101319.97;;;21.28;100.00
3917;BME280;1973;50.518;7.318;2022-07-22T07:47:23;101316.00;;;21.24;100.00
3917;BME280;1973;50.518;7.318;2022-07-22T07:49:50;101321.91;;;21.32;100.00
3917;BME280;1973;50.518;7.318;2022-07-22T07:52:17;101312.44;;;21.39;100.00
3917;BME280;1973;50.518;7.318;2022-07-22T07:54:44;101308.25;;;21.46;100.00
3917;BME280;1973;50.518;7.318;2022-07-22T07:57:30;101302.63;;;21.51;100.00
3917;BME280;1973;50.518;7.318;2022-07-22T07:59:57;101305.22;;;21.58;100.00
3917;BME280;1973;50.518;7.318;2022-07-22T08:02:23;101308.28;;;21.61;100.00
3917;BME280;1973;50.518;7.318;2022-07-22T08:04:50;101305.50;;;21.66;100.00
3917;BME280;1973;50.518;7.318;2022-07-22T08:07:24;101297.94;;;21.67;100.00
3917;BME280;1973;50.518;7.318;2022-07-22T08:09:52;101293.72;;;21.64;100.00
3917;BME280;1973;50.518;7.318;2022-07-22T08:12:38;101300.44;;;21.73;100.00
3917;BME280;1973;50.518;7.318;2022-07-22T08:15:06;101292.31;;;21.77;100.00
3917;BME280;1973;50.518;7.318;2022-07-22T08:17:34;101290.09;;;21.79;100.00
3917;BME280;1973;50.518;7.318;2022-07-22T08:20:02;101295.44;;;21.85;100.00
3917;BME280;1973;50.518;7.318;2022-07-22T08:22:30;101285.34;;;21.90;100.00
3917;BME280;1973;50.518;7.318;2022-07-22T08:24:56;101288.41;;;21.78;100.00
3917;BME280;1973;50.518;7.318;2022-07-22T08:27:23;101281.38;;;21.70;100.00
3917;BME280;1973;50.518;7.318;2022-07-22T08:29:49;101290.63;;;21.66;100.00
3917;BME280;1973;50.518;7.318;2022-07-22T08:32:16;101286.97;;;21.60;100.00
3917;BME280;1973;50.518;7.318;2022-07-22T08:34:43;101295.41;;;21.65;100.00
3917;BME280;1973;50.518;7.318;2022-07-22T08:37:09;101282.50;;;21.64;100.00
3917;BME280;1973;50.518;7.318;2022-07-22T08:39:36;101284.72;;;21.52;100.00
3917;BME280;1973;50.518;7.318;2022-07-22T08:42:03;101280.25;;;21.56;100.00
3917;BME280;1973;50.518;7.318;2022-07-22T08:44:31;101276.31;;;21.62;100.00
3917;BME280;1973;50.518;7.318;2022-07-22T08:46:59;101285.88;;;21.66;100.00
3917;BME280;1973;50.518;7.318;2022-07-22T08:49:32;101268.50;;;21.74;100.00
3917;BME280;1973;50.518;7.318;2022-07-22T08:51:59;101273.00;;;21.85;100.00
3917;BME280;1973;50.518;7.318;2022-07-22T08:54:25;101269.09;;;21.92;100.00
3917;BME280;1973;50.518;7.318;2022-07-22T08:56:52;101271.06;;;21.96;100.00
3917;BME280;1973;50.518;7.318;2022-07-22T08:59:18;101274.16;;;22.00;100.00
3917;BME280;1973;50.518;7.318;2022-07-22T09:02:05;101263.78;;;22.10;100.00
3917;BME280;1973;50.518;7.318;2022-07-22T09:04:32;101259.00;;;22.21;100.00
3917;BME280;1973;50.518;7.318;2022-07-22T09:06:59;101265.75;;;22.35;100.00
3917;BME280;1973;50.518;7.318;2022-07-22T09:09:31;101259.00;;;22.46;100.00
3917;BME280;1973;50.518;7.318;2022-07-22T09:12:08;101269.09;;;22.57;100.00
3917;BME280;1973;50.518;7.318;2022-07-22T09:14:56;101257.84;;;22.57;98.46
3917;BME280;1973;50.518;7.318;2022-07-22T09:19:56;101248.31;;;22.68;100.00
3917;BME280;1973;50.518;7.318;2022-07-22T09:22:32;101251.34;;;22.77;100.00
3917;BME280;1973;50.518;7.318;2022-07-22T09:25:27;101250.78;;;22.80;99.25
3917;BME280;1973;50.518;7.318;2022-07-22T09:28:16;101249.34;;;22.93;99.67
3917;BME280;1973;50.518;7.318;2022-07-22T09:30:51;101252.13;;;22.98;99.90
3917;BME280;1973;50.518;7.318;2022-07-22T09:33:21;101256.59;;;22.99;100.00
3917;BME280;1973;50.518;7.318;2022-07-22T09:35:48;101257.97;;;23.11;100.00
3917;BME280;1973;50.518;7.318;2022-07-22T09:38:19;101250.91;;;23.19;99.62
3917;BME280;1973;50.518;7.318;2022-07-22T09:40:47;101250.00;;;23.34;100.00
3917;BME280;1973;50.518;7.318;2022-07-22T09:43:19;101242.34;;;23.39;97.37
3917;BME280;1973;50.518;7.318;2022-07-22T09:45:55;101255.00;;;23.47;97.19
3917;BME280;1973;50.518;7.318;2022-07-22T09:48:25;101246.53;;;23.52;96.67
3917;BME280;1973;50.518;7.318;2022-07-22T09:50:53;101238.34;;;23.60;97.57
3917;BME280;1973;50.518;7.318;2022-07-22T09:53:23;101237.16;;;23.66;96.76
3917;BME280;1973;50.518;7.318;2022-07-22T09:55:50;101237.16;;;23.66;94.59
3917;BME280;1973;50.518;7.318;2022-07-22T09:58:17;101227.25;;;23.74;92.75
3917;BME280;1973;50.518;7.318;2022-07-22T10:00:43;101226.66;;;23.77;91.26
3917;BME280;1973;50.518;7.318;2022-07-22T10:03:13;101226.03;;;23.90;90.88
3917;BME280;1973;50.518;7.318;2022-07-22T10:05:43;101225.94;;;24.00;90.85
3917;BME280;1973;50.518;7.318;2022-07-22T10:08:10;101202.19;;;24.11;89.99
3917;BME280;1973;50.518;7.318;2022-07-22T10:10:37;101212.25;;;24.22;87.88
3917;BME280;1973;50.518;7.318;2022-07-22T10:13:05;101219.22;;;24.30;87.17
3917;BME280;1973;50.518;7.318;2022-07-22T10:15:34;101217.38;;;24.15;86.32
3917;BME280;1973;50.518;7.318;2022-07-22T10:18:22;101203.94;;;24.36;80.29
3917;BME280;1973;50.518;7.318;2022-07-22T10:21:00;101205.56;;;24.42;82.46
3917;BME280;1973;50.518;7.318;2022-07-22T10:23:27;101193.59;;;24.55;82.93
3917;BME280;1973;50.518;7.318;2022-07-22T10:25:58;101194.06;;;24.62;79.49
3917;BME280;1973;50.518;7.318;2022-07-22T10:28:34;101190.34;;;24.67;80.89
3917;BME280;1973;50.518;7.318;2022-07-22T10:31:23;101185.72;;;24.76;73.02
3917;BME280;1973;50.518;7.318;2022-07-22T10:33:56;101188.16;;;24.88;77.19
3917;BME280;1973;50.518;7.318;2022-07-22T10:36:38;101179.69;;;24.88;72.90
3917;BME280;1973;50.518;7.318;2022-07-22T10:39:11;101173.84;;;25.03;76.44
3917;BME280;1973;50.518;7.318;2022-07-22T10:41:43;101178.75;;;25.16;74.78
3917;BME280;1973;50.518;7.318;2022-07-22T10:44:46;101176.41;;;25.23;71.52
3917;BME280;1973;50.518;7.318;2022-07-22T10:47:55;101171.97;;;25.36;71.64
3917;BME280;1973;50.518;7.318;2022-07-22T10:53:19;101167.81;;;25.52;71.70
3917;BME280;1973;50.518;7.318;2022-07-22T11:01:00;101146.66;;;26.00;71.44
3917;BME280;1973;50.518;7.318;2022-07-22T11:03:31;101143.22;;;26.03;70.89
3917;BME280;1973;50.518;7.318;2022-07-22T11:08:47;101153.16;;;26.14;69.13
3917;BME280;1973;50.518;7.318;2022-07-22T11:11:14;101148.88;;;26.17;69.91
3917;BME280;1973;50.518;7.318;2022-07-22T11:13:43;101146.84;;;26.36;70.12
3917;BME280;1973;50.518;7.318;2022-07-22T11:16:21;101140.88;;;26.51;65.19
3917;BME280;1973;50.518;7.318;2022-07-22T11:18:54;101142.56;;;26.66;67.48
3917;BME280;1973;50.518;7.318;2022-07-22T11:21:25;101141.72;;;26.93;66.04
3917;BME280;1973;50.518;7.318;2022-07-22T11:23:57;101137.31;;;27.00;66.01
3917;BME280;1973;50.518;7.318;2022-07-22T11:26:33;101129.69;;;27.01;62.22
3917;BME280;1973;50.518;7.318;2022-07-22T11:29:00;101134.66;;;27.18;64.92
3917;BME280;1973;50.518;7.318;2022-07-22T11:31:27;101131.56;;;27.28;64.09
3917;BME280;1973;50.518;7.318;2022-07-22T11:34:04;101129.03;;;27.40;61.50
3917;BME280;1973;50.518;7.318;2022-07-22T11:36:33;101131.31;;;27.51;63.44
3917;BME280;1973;50.518;7.318;2022-07-22T11:39:00;101126.88;;;27.59;62.54
3917;BME280;1973;50.518;7.318;2022-07-22T11:41:29;101124.13;;;27.68;61.87
3917;BME280;1973;50.518;7.318;2022-07-22T11:43:57;101116.78;;;27.67;61.63
3917;BME280;1973;50.518;7.318;2022-07-22T11:46:25;101109.16;;;27.76;60.72
3917;BME280;1973;50.518;7.318;2022-07-22T11:48:53;101105.94;;;27.91;61.92
3917;BME280;1973;50.518;7.318;2022-07-22T11:51:19;101098.94;;;27.88;60.74
3917;BME280;1973;50.518;7.318;2022-07-22T11:53:47;101095.50;;;28.00;60.74
3917;BME280;1973;50.518;7.318;2022-07-22T11:56:13;101103.09;;;28.13;59.69
3917;BME280;1973;50.518;7.318;2022-07-22T11:58:45;101111.31;;;28.23;57.68
3917;BME280;1973;50.518;7.318;2022-07-22T12:01:14;101100.97;;;28.19;58.29
3917;BME280;1973;50.518;7.318;2022-07-22T12:03:45;101092.50;;;28.05;57.57
3917;BME280;1973;50.518;7.318;2022-07-22T12:06:14;101096.66;;;27.99;59.01
3917;BME280;1973;50.518;7.318;2022-07-22T12:08:43;101084.84;;;28.05;58.98
3917;BME280;1973;50.518;7.318;2022-07-22T12:11:12;101077.66;;;28.22;60.36
3917;BME280;1973;50.518;7.318;2022-07-22T12:13:45;101083.19;;;28.35;56.42
3917;BME280;1973;50.518;7.318;2022-07-22T12:16:29;101081.59;;;28.51;55.29
3917;BME280;1973;50.518;7.318;2022-07-22T12:18:59;101081.06;;;28.49;56.99
3917;BME280;1973;50.518;7.318;2022-07-22T12:21:30;101074.75;;;28.52;56.47
3917;BME280;1973;50.518;7.318;2022-07-22T12:24:00;101065.41;;;28.61;55.32
3917;BME280;1973;50.518;7.318;2022-07-22T12:26:44;101065.94;;;28.63;54.76
3917;BME280;1973;50.518;7.318;2022-07-22T12:29:23;101060.44;;;28.66;54.28
3917;BME280;1973;50.518;7.318;2022-07-22T12:31:56;101051.41;;;28.64;55.92
3917;BME280;1973;50.518;7.318;2022-07-22T12:34:42;101052.31;;;28.73;54.42
3917;BME280;1973;50.518;7.318;2022-07-22T12:40:08;101056.50;;;28.84;53.20
3917;BME280;1973;50.518;7.318;2022-07-22T12:42:40;101061.34;;;28.84;54.21
3917;BME280;1973;50.518;7.318;2022-07-22T12:45:12;101052.50;;;28.94;53.28
3917;BME280;1973;50.518;7.318;2022-07-22T12:52:42;101054.69;;;28.97;54.31
3917;BME280;1973;50.518;7.318;2022-07-22T12:55:30;101046.19;;;28.97;53.94
3917;BME280;1973;50.518;7.318;2022-07-22T12:57:57;101043.19;;;28.93;53.74
3917;BME280;1973;50.518;7.318;2022-07-22T13:00:32;101028.81;;;28.98;53.51
3917;BME280;1973;50.518;7.318;2022-07-22T13:02:59;101035.97;;;29.13;53.50
3917;BME280;1973;50.518;7.318;2022-07-22T13:05:27;101032.66;;;29.28;52.35
3917;BME280;1973;50.518;7.318;2022-07-22T13:07:54;101020.31;;;29.41;52.05
3917;BME280;1973;50.518;7.318;2022-07-22T13:10:22;101021.63;;;29.53;51.11
3917;BME280;1973;50.518;7.318;2022-07-22T13:12:50;101010.91;;;29.58;51.35
3917;BME280;1973;50.518;7.318;2022-07-22T13:15:17;101012.06;;;29.66;50.45
3917;BME280;1973;50.518;7.318;2022-07-22T13:17:44;101010.81;;;29.84;50.93
3917;BME280;1973;50.518;7.318;2022-07-22T13:20:12;101013.31;;;29.94;49.73
3917;BME280;1973;50.518;7.318;2022-07-22T13:22:49;101009.97;;;30.01;49.77
3917;BME280;1973;50.518;7.318;2022-07-22T13:25:16;101003.09;;;30.02;49.15
3917;BME280;1973;50.518;7.318;2022-07-22T13:27:42;100996.09;;;29.99;48.72
3917;BME280;1973;50.518;7.318;2022-07-22T13:30:09;100992.72;;;30.06;49.32
3917;BME280;1973;50.518;7.318;2022-07-22T13:32:36;100993.72;;;30.01;49.09